Time;durP1;ratioP1;P1;durP2;ratioP2;P2;SDS_P1;SDS_P2;PMS_P1;PMS_P2;Temp;Humidity;BMP_temperature;BMP_pressure;BME280_temperature;BME280_humidity;BME280_pressure;Samples;Min_cycle;Max_cycle;Signal;HPM_P1;HPM_P2
2023/07/06 00:00:53;;;;;;;7.47;5.82;;;14.60;99.90;;;;;;5044879;28;21558;-72
2023/07/06 00:03:19;;;;;;;8.23;6.00;;;14.60;99.90;;;;;;5053210;28;20397;-72
2023/07/06 00:05:45;;;;;;;8.98;5.85;;;14.60;99.90;;;;;;5049500;28;20036;-75
2023/07/06 00:08:12;;;;;;;10.50;6.30;;;14.60;99.90;;;;;;5046540;28;20049;-72
2023/07/06 00:10:39;;;;;;;10.80;6.20;;;14.50;99.90;;;;;;5051197;28;20167;-71
2023/07/06 00:13:06;;;;;;;8.00;5.95;;;14.50;99.90;;;;;;5045962;28;20125;-74
2023/07/06 00:15:34;;;;;;;8.70;6.10;;;14.40;99.90;;;;;;5042984;28;20084;-72
2023/07/06 00:18:04;;;;;;;8.77;6.30;;;14.40;99.90;;;;;;5046639;28;20071;-72
2023/07/06 00:20:35;;;;;;;9.60;6.97;;;14.40;99.90;;;;;;5050565;28;20131;-72
2023/07/06 00:23:01;;;;;;;9.30;6.25;;;14.30;99.90;;;;;;5020408;28;20052;-74
2023/07/06 00:25:27;;;;;;;8.68;6.90;;;14.30;99.90;;;;;;5022717;28;20041;-71
2023/07/06 00:27:58;;;;;;;9.60;6.65;;;14.20;99.90;;;;;;5036612;28;20052;-71
2023/07/06 00:33:15;;;;;;;11.65;7.90;;;14.20;99.90;;;;;;5044892;28;20048;-72
2023/07/06 00:35:41;;;;;;;9.63;6.97;;;14.20;99.90;;;;;;5045231;28;20044;-72
2023/07/06 00:38:10;;;;;;;10.45;6.82;;;14.20;99.90;;;;;;5029768;28;20049;-73
2023/07/06 00:40:41;;;;;;;10.00;6.95;;;14.10;99.90;;;;;;5040540;28;20028;-72
2023/07/06 00:43:16;;;;;;;10.25;6.82;;;14.10;99.90;;;;;;5041663;28;20534;-71
2023/07/06 00:45:44;;;;;;;9.57;7.13;;;14.10;99.90;;;;;;5039741;28;20036;-73
2023/07/06 00:48:26;;;;;;;9.23;6.75;;;14.00;99.90;;;;;;5040369;28;20048;-71
2023/07/06 00:51:04;;;;;;;10.20;6.93;;;14.00;99.90;;;;;;5046274;28;20040;-74
2023/07/06 00:53:35;;;;;;;7.80;6.55;;;14.00;99.90;;;;;;5033836;28;20071;-71
2023/07/06 00:56:02;;;;;;;8.63;7.10;;;13.90;99.90;;;;;;5054825;28;20530;-71
2023/07/06 00:58:38;;;;;;;7.83;6.60;;;13.90;99.90;;;;;;5035798;28;20103;-72
2023/07/06 01:01:07;;;;;;;7.78;6.78;;;13.90;99.90;;;;;;5028899;28;20378;-72
2023/07/06 01:03:34;;;;;;;10.30;6.95;;;13.90;99.90;;;;;;5027271;28;20539;-72
2023/07/06 01:06:04;;;;;;;8.35;6.65;;;13.90;99.90;;;;;;5031290;28;20053;-71
2023/07/06 01:08:35;;;;;;;8.70;6.97;;;13.80;99.90;;;;;;5022345;28;20230;-73
2023/07/06 01:11:01;;;;;;;7.80;6.40;;;13.80;99.90;;;;;;5021414;28;20049;-71
2023/07/06 01:13:28;;;;;;;11.18;6.82;;;13.80;99.90;;;;;;5007954;28;22020;-71
2023/07/06 01:16:01;;;;;;;10.05;7.05;;;13.70;99.90;;;;;;5022430;28;20052;-71
2023/07/06 01:18:39;;;;;;;8.48;6.32;;;13.70;99.90;;;;;;5024151;28;20152;-72
2023/07/06 01:21:18;;;;;;;8.30;6.55;;;13.70;99.90;;;;;;5030213;28;20512;-71
2023/07/06 01:24:14;;;;;;;7.90;7.10;;;13.70;99.90;;;;;;5034436;28;20044;-71
2023/07/06 01:26:58;;;;;;;8.77;6.37;;;13.60;99.90;;;;;;5025485;28;20179;-71
2023/07/06 01:29:29;;;;;;;8.07;6.50;;;13.60;99.90;;;;;;5026552;28;20487;-73
2023/07/06 01:32:05;;;;;;;8.23;6.50;;;13.60;99.90;;;;;;5008358;28;20083;-72
2023/07/06 01:34:44;;;;;;;8.90;6.70;;;13.50;99.90;;;;;;5021249;28;20079;-70
2023/07/06 01:37:18;;;;;;;9.52;6.75;;;13.60;99.90;;;;;;5028017;28;20079;-71
2023/07/06 01:39:44;;;;;;;8.52;6.43;;;13.50;99.90;;;;;;5016674;28;20416;-72
2023/07/06 01:42:10;;;;;;;7.68;6.28;;;13.50;99.90;;;;;;5026499;28;20048;-71
2023/07/06 01:44:45;;;;;;;9.77;7.07;;;13.50;99.90;;;;;;5027045;28;20515;-72
2023/07/06 01:47:11;;;;;;;9.25;6.97;;;13.50;99.90;;;;;;5016383;28;20045;-71
2023/07/06 01:49:38;;;;;;;8.38;7.18;;;13.50;99.90;;;;;;5029799;28;20124;-71
2023/07/06 01:52:19;;;;;;;10.02;7.13;;;13.50;99.90;;;;;;5022636;28;20045;-71
2023/07/06 01:55:09;;;;;;;10.30;7.63;;;13.50;99.90;;;;;;5022075;28;20049;-71
2023/07/06 01:57:53;;;;;;;10.18;6.97;;;13.40;99.90;;;;;;5026885;28;20041;-73
2023/07/06 02:00:22;;;;;;;8.73;7.32;;;13.50;99.90;;;;;;5023147;28;20052;-71
2023/07/06 02:02:51;;;;;;;10.38;7.13;;;13.40;99.90;;;;;;5010442;28;20585;-71
2023/07/06 02:05:19;;;;;;;9.40;7.30;;;13.50;99.90;;;;;;5027547;28;20041;-71
2023/07/06 02:07:45;;;;;;;8.88;7.63;;;13.40;99.90;;;;;;5030548;28;20478;-71
2023/07/06 02:10:15;;;;;;;10.38;8.10;;;13.40;99.90;;;;;;5018216;28;20051;-76
2023/07/06 02:12:47;;;;;;;10.07;7.50;;;13.50;99.90;;;;;;5028880;28;20052;-72
2023/07/06 02:15:19;;;;;;;8.70;7.82;;;13.50;99.90;;;;;;5022674;28;20131;-73
2023/07/06 02:17:50;;;;;;;10.48;7.57;;;13.50;99.90;;;;;;5002776;28;20041;-71
2023/07/06 02:20:18;;;;;;;9.10;7.82;;;13.50;99.90;;;;;;5023708;28;20116;-71
2023/07/06 02:22:44;;;;;;;;;;;13.50;99.90;;;;;;5032452;28;20067;-71
2023/07/06 02:25:10;;;;;;;9.53;8.10;;;13.50;99.90;;;;;;5018993;28;20284;-71
2023/07/06 02:27:36;;;;;;;10.73;8.35;;;13.40;99.90;;;;;;5024496;28;20274;-71
2023/07/06 02:30:03;;;;;;;11.27;8.80;;;13.50;99.90;;;;;;5008676;28;20028;-71
2023/07/06 02:32:29;;;;;;;10.40;8.73;;;13.50;99.90;;;;;;5012980;28;20049;-71
2023/07/06 02:34:54;;;;;;;12.13;8.48;;;13.50;99.90;;;;;;5009911;28;20045;-70
2023/07/06 02:37:23;;;;;;;13.80;9.18;;;13.60;99.90;;;;;;5023872;28;20037;-72
2023/07/06 02:39:50;;;;;;;14.23;9.35;;;13.50;99.90;;;;;;5022544;28;20087;-73
2023/07/06 02:42:16;;;;;;;10.65;8.77;;;13.60;99.90;;;;;;5024211;28;20107;-72
2023/07/06 02:44:43;;;;;;;12.17;8.67;;;13.60;99.90;;;;;;5025814;28;21005;-71
2023/07/06 02:47:11;;;;;;;11.40;8.70;;;13.50;99.90;;;;;;5024622;28;20389;-71
2023/07/06 02:49:37;;;;;;;11.18;9.00;;;13.50;99.90;;;;;;5019355;28;20431;-71
2023/07/06 02:52:04;;;;;;;10.20;9.07;;;13.60;99.90;;;;;;5000936;28;20041;-72
2023/07/06 02:54:32;;;;;;;13.65;9.57;;;13.60;99.90;;;;;;5007901;28;20496;-71
2023/07/06 02:57:00;;;;;;;9.95;8.95;;;13.60;99.90;;;;;;5028715;28;20449;-71
2023/07/06 02:59:33;;;;;;;10.93;8.90;;;13.60;99.90;;;;;;5042402;28;20563;-73
2023/07/06 03:01:58;;;;;;;11.60;10.10;;;13.60;99.90;;;;;;5049923;28;20180;-73
2023/07/06 03:04:25;;;;;;;10.32;9.27;;;13.60;99.90;;;;;;5056152;28;20040;-73
2023/07/06 03:06:51;;;;;;;11.30;9.63;;;13.60;99.90;;;;;;5050734;28;20039;-71
2023/07/06 03:09:17;;;;;;;10.82;9.38;;;13.60;99.90;;;;;;5048454;28;20062;-72
2023/07/06 03:11:44;;;;;;;13.10;9.40;;;13.60;99.90;;;;;;5048797;28;20048;-71
2023/07/06 03:14:11;;;;;;;11.05;9.80;;;13.60;99.90;;;;;;5052225;28;20071;-72
2023/07/06 03:16:40;;;;;;;13.55;10.25;;;13.60;99.90;;;;;;5048211;28;20050;-71
2023/07/06 03:19:08;;;;;;;12.40;10.35;;;13.60;99.90;;;;;;5049799;28;20775;-71
2023/07/06 03:21:34;;;;;;;13.07;10.38;;;13.60;99.90;;;;;;5048264;28;20151;-73
2023/07/06 03:24:01;;;;;;;12.15;9.65;;;13.60;99.90;;;;;;5050077;28;20148;-71
2023/07/06 03:26:26;;;;;;;12.85;10.00;;;13.60;99.90;;;;;;5054343;28;20116;-74
2023/07/06 03:28:52;;;;;;;11.52;10.25;;;13.60;99.90;;;;;;5055799;28;20385;-71
2023/07/06 03:31:19;;;;;;;12.77;10.68;;;13.60;99.90;;;;;;5044617;28;20037;-72
2023/07/06 03:33:45;;;;;;;13.05;10.30;;;13.60;99.90;;;;;;5043397;28;20072;-71
2023/07/06 03:36:11;;;;;;;12.27;11.00;;;13.60;99.90;;;;;;5049906;28;20052;-72
2023/07/06 03:38:37;;;;;;;12.38;11.15;;;13.60;99.90;;;;;;5047725;28;20161;-72
2023/07/06 03:41:03;;;;;;;14.18;11.85;;;13.60;99.90;;;;;;5048594;28;20076;-72
2023/07/06 03:43:30;;;;;;;13.68;11.52;;;13.60;99.90;;;;;;5050212;28;20040;-71
2023/07/06 03:45:55;;;;;;;15.50;12.38;;;13.60;99.90;;;;;;5046794;28;20041;-73
2023/07/06 03:48:21;;;;;;;14.30;12.77;;;13.60;99.90;;;;;;5052473;28;21049;-71
2023/07/06 03:50:52;;;;;;;15.10;13.02;;;13.60;99.90;;;;;;5043817;28;20071;-72
2023/07/06 03:53:19;;;;;;;14.20;12.70;;;13.70;99.90;;;;;;5041108;28;20044;-72
2023/07/06 03:55:46;;;;;;;16.02;13.00;;;13.70;99.90;;;;;;5042018;28;20492;-71
2023/07/06 03:58:12;;;;;;;16.40;13.85;;;13.70;99.90;;;;;;5041264;28;20048;-70
2023/07/06 04:00:38;;;;;;;15.38;13.80;;;13.70;99.90;;;;;;5039620;28;20702;-73
2023/07/06 04:03:06;;;;;;;18.47;13.50;;;13.70;99.90;;;;;;5021849;28;20075;-72
2023/07/06 04:05:38;;;;;;;21.65;14.60;;;13.70;99.90;;;;;;5051061;28;20080;-70
2023/07/06 04:08:08;;;;;;;16.75;14.07;;;13.70;99.90;;;;;;5053424;28;20083;-71
2023/07/06 04:10:35;;;;;;;20.52;15.45;;;13.80;99.90;;;;;;5027661;28;20097;-72
2023/07/06 04:13:01;;;;;;;;;;;13.80;99.90;;;;;;5033195;28;20049;-72
2023/07/06 04:15:27;;;;;;;19.35;14.13;;;13.80;99.90;;;;;;5044307;28;19924;-71
2023/07/06 04:17:54;;;;;;;19.75;15.10;;;13.80;99.90;;;;;;5045385;28;20049;-71
2023/07/06 04:20:23;;;;;;;18.20;14.82;;;13.80;99.90;;;;;;5023531;28;20076;-72
2023/07/06 04:22:55;;;;;;;17.20;14.93;;;13.80;99.90;;;;;;5053487;28;20396;-71
2023/07/06 04:25:26;;;;;;;17.92;14.25;;;13.90;99.90;;;;;;5048003;28;20047;-70
2023/07/06 04:27:53;;;;;;;17.33;14.07;;;13.90;99.90;;;;;;5047210;28;20048;-71
2023/07/06 04:30:20;;;;;;;22.20;16.08;;;13.90;99.90;;;;;;5040222;28;20047;-71
2023/07/06 04:32:50;;;;;;;18.23;14.45;;;14.00;99.90;;;;;;5050311;28;20692;-71
2023/07/06 04:35:22;;;;;;;22.08;15.40;;;14.00;99.90;;;;;;5044656;28;20043;-71
2023/07/06 04:37:49;;;;;;;18.40;14.48;;;14.10;99.90;;;;;;5045901;28;20767;-71
2023/07/06 04:40:20;;;;;;;17.55;15.50;;;14.10;99.90;;;;;;5043611;28;20055;-71
2023/07/06 04:42:48;;;;;;;19.08;14.93;;;14.10;99.90;;;;;;5027500;28;20048;-70
2023/07/06 04:45:15;;;;;;;17.35;14.75;;;14.10;99.90;;;;;;5051285;28;20052;-72
2023/07/06 04:47:44;;;;;;;19.02;15.20;;;14.20;99.90;;;;;;5046366;28;20067;-71
2023/07/06 04:50:17;;;;;;;16.30;14.48;;;14.20;99.90;;;;;;5032187;28;20056;-71
2023/07/06 04:52:46;;;;;;;17.60;13.73;;;14.20;99.90;;;;;;5044495;28;20048;-72
2023/07/06 04:55:12;;;;;;;16.75;14.15;;;14.30;99.90;;;;;;5033125;28;20063;-71
2023/07/06 04:57:39;;;;;;;16.17;13.80;;;14.30;99.90;;;;;;5034618;28;20040;-71
2023/07/06 05:00:16;;;;;;;16.98;14.45;;;14.20;99.90;;;;;;5026973;28;20804;-70
2023/07/06 05:02:42;;;;;;;16.23;14.45;;;14.30;99.90;;;;;;5048881;28;20059;-70
2023/07/06 05:05:11;;;;;;;15.98;14.32;;;14.30;99.90;;;;;;5051372;28;20068;-71
2023/07/06 05:07:38;;;;;;;17.52;14.30;;;14.30;99.90;;;;;;5046121;28;20044;-70
2023/07/06 05:10:05;;;;;;;18.60;14.57;;;14.40;99.90;;;;;;5049512;28;20052;-72
2023/07/06 05:12:30;;;;;;;16.70;14.07;;;14.50;99.90;;;;;;5050209;28;20052;-71
2023/07/06 05:14:56;;;;;;;17.45;14.18;;;14.50;99.90;;;;;;5035118;28;20041;-71
2023/07/06 05:17:22;;;;;;;19.85;14.02;;;14.60;99.90;;;;;;5039907;28;20056;-73
2023/07/06 05:19:47;;;;;;;17.30;13.98;;;14.60;99.90;;;;;;5031999;28;20553;-70
2023/07/06 05:22:18;;;;;;;16.77;13.43;;;14.70;99.90;;;;;;5043651;28;20036;-70
2023/07/06 05:24:44;;;;;;;17.98;13.55;;;14.80;99.90;;;;;;5046236;28;20071;-73
2023/07/06 05:27:10;;;;;;;16.15;13.77;;;14.80;99.90;;;;;;5025280;28;20043;-70
2023/07/06 05:29:36;;;;;;;17.17;14.70;;;14.90;99.90;;;;;;5042192;28;20048;-72
2023/07/06 05:32:01;;;;;;;17.13;13.95;;;15.00;99.90;;;;;;5022767;28;20636;-71
2023/07/06 05:34:27;;;;;;;15.90;13.85;;;15.00;99.90;;;;;;5020863;28;20041;-71
2023/07/06 05:36:53;;;;;;;16.42;14.07;;;15.10;99.90;;;;;;5026245;28;20052;-71
2023/07/06 05:39:18;;;;;;;16.92;13.95;;;15.10;99.90;;;;;;5037538;28;20052;-70
2023/07/06 05:41:44;;;;;;;15.48;13.63;;;15.20;99.90;;;;;;5034528;28;20029;-70
2023/07/06 05:44:10;;;;;;;17.00;13.95;;;15.20;99.90;;;;;;5025316;28;20106;-72
2023/07/06 05:46:36;;;;;;;17.95;13.50;;;15.30;99.90;;;;;;5045555;28;20044;-70
2023/07/06 05:49:01;;;;;;;17.85;13.60;;;15.40;99.90;;;;;;5050910;28;20235;-71
2023/07/06 05:51:27;;;;;;;18.23;12.50;;;15.40;99.90;;;;;;5031375;28;20384;-70
2023/07/06 05:53:53;;;;;;;15.48;13.27;;;15.50;99.90;;;;;;5027870;28;20075;-70
2023/07/06 05:56:19;;;;;;;15.45;13.30;;;15.50;99.90;;;;;;5048705;28;20055;-70
2023/07/06 05:58:45;;;;;;;17.20;13.30;;;15.60;99.90;;;;;;5045195;28;20551;-72
2023/07/06 06:01:11;;;;;;;20.77;13.70;;;15.70;99.90;;;;;;5040865;28;20050;-70
2023/07/06 06:03:40;;;;;;;14.90;12.50;;;15.70;99.90;;;;;;5043388;28;20048;-70
2023/07/06 06:06:07;;;;;;;17.10;13.10;;;15.80;99.90;;;;;;5026992;28;20106;-70
2023/07/06 06:08:33;;;;;;;15.90;12.52;;;15.90;99.90;;;;;;5025541;28;20048;-70
2023/07/06 06:11:00;;;;;;;18.48;13.38;;;15.90;99.90;;;;;;5026158;28;20044;-70
2023/07/06 06:13:27;;;;;;;15.88;13.50;;;16.00;99.90;;;;;;5023367;28;20049;-72
2023/07/06 06:15:53;;;;;;;18.48;12.82;;;16.00;99.90;;;;;;5041580;28;20052;-70
2023/07/06 06:18:19;;;;;;;16.23;13.00;;;16.10;99.90;;;;;;5025458;28;20056;-70
2023/07/06 06:20:44;;;;;;;20.25;13.75;;;16.10;99.90;;;;;;5045305;28;20546;-70
2023/07/06 06:23:11;;;;;;;16.38;13.40;;;16.10;99.90;;;;;;5041636;28;20037;-69
2023/07/06 06:25:38;;;;;;;16.95;13.43;;;16.10;99.90;;;;;;5044639;28;20496;-70
2023/07/06 06:28:05;;;;;;;21.70;12.80;;;16.10;99.90;;;;;;5042476;28;20446;-70
2023/07/06 06:30:31;;;;;;;17.90;12.90;;;16.20;99.90;;;;;;5037002;28;20463;-71
2023/07/06 06:32:57;;;;;;;16.95;13.20;;;16.20;99.90;;;;;;5047504;28;20049;-71
2023/07/06 06:35:28;;;;;;;17.43;12.90;;;16.20;99.90;;;;;;5039653;28;20040;-70
2023/07/06 06:37:54;;;;;;;15.60;13.00;;;16.20;99.90;;;;;;5020064;28;20295;-71
2023/07/06 06:40:21;;;;;;;15.27;12.70;;;16.20;99.90;;;;;;5021401;28;20076;-72
2023/07/06 06:42:48;;;;;;;17.63;13.10;;;16.30;99.90;;;;;;5042982;28;20072;-70
2023/07/06 06:45:15;;;;;;;18.63;13.02;;;16.30;99.90;;;;;;5032601;28;20048;-71
2023/07/06 06:47:41;;;;;;;19.77;13.20;;;16.30;99.90;;;;;;5054040;28;20564;-71
2023/07/06 06:50:13;;;;;;;18.33;13.23;;;16.40;99.90;;;;;;5032826;28;20048;-71
2023/07/06 06:52:40;;;;;;;21.75;14.38;;;16.40;99.90;;;;;;5051325;28;20037;-70
2023/07/06 06:55:07;;;;;;;19.02;13.82;;;16.50;99.90;;;;;;5047908;28;20573;-69
2023/07/06 06:57:33;;;;;;;19.07;12.80;;;16.50;99.90;;;;;;5055191;28;20045;-69
2023/07/06 06:59:59;;;;;;;18.25;13.40;;;16.60;99.90;;;;;;5056039;28;20309;-69
2023/07/06 07:02:26;;;;;;;19.13;13.65;;;16.60;99.90;;;;;;5054170;28;20033;-70
2023/07/06 07:04:52;;;;;;;17.23;13.15;;;16.70;99.90;;;;;;5035614;28;20090;-69
2023/07/06 07:07:18;;;;;;;21.55;13.77;;;16.80;99.90;;;;;;5035687;28;20044;-68
2023/07/06 07:09:45;;;;;;;20.05;13.25;;;16.90;99.90;;;;;;5039402;28;20562;-68
2023/07/06 07:12:11;;;;;;;18.10;13.25;;;16.90;99.90;;;;;;5051011;28;20051;-69
2023/07/06 07:14:38;;;;;;;17.05;12.75;;;17.00;99.90;;;;;;5038501;28;20957;-69
2023/07/06 07:17:07;;;;;;;18.23;13.13;;;17.00;99.90;;;;;;5028872;28;20493;-69
2023/07/06 07:19:34;;;;;;;19.88;14.85;;;17.10;99.90;;;;;;5052896;28;20508;-68
2023/07/06 07:22:01;;;;;;;17.30;14.00;;;17.10;99.90;;;;;;5050877;28;20160;-69
2023/07/06 07:24:30;;;;;;;;;;;17.10;99.90;;;;;;5040898;28;20052;-67
2023/07/06 07:27:00;;;;;;;18.23;13.68;;;17.10;99.90;;;;;;5061141;28;20700;-68
2023/07/06 07:29:26;;;;;;;19.35;13.63;;;17.30;99.90;;;;;;5058663;28;20057;-68
2023/07/06 07:31:52;;;;;;;19.25;13.75;;;17.40;99.90;;;;;;5053192;28;20687;-67
2023/07/06 07:34:19;;;;;;;18.23;13.93;;;17.50;99.90;;;;;;5036228;28;20044;-68
2023/07/06 07:36:48;;;;;;;21.13;13.48;;;17.50;99.90;;;;;;5059530;28;20071;-69
2023/07/06 07:39:14;;;;;;;20.65;12.70;;;17.50;99.90;;;;;;5032819;28;20606;-68
2023/07/06 07:41:42;;;;;;;18.17;13.25;;;17.60;99.90;;;;;;5053798;28;20065;-67
2023/07/06 07:44:08;;;;;;;17.98;12.50;;;17.80;99.90;;;;;;5047125;28;20057;-68
2023/07/06 07:46:35;;;;;;;16.30;12.38;;;17.80;99.90;;;;;;5052680;28;20044;-71
2023/07/06 07:49:01;;;;;;;18.15;12.73;;;17.80;99.90;;;;;;5048888;28;20076;-73
2023/07/06 07:51:28;;;;;;;17.83;11.82;;;17.80;99.90;;;;;;5037416;28;21762;-66
2023/07/06 07:53:55;;;;;;;18.73;13.07;;;17.80;99.90;;;;;;5047443;28;20122;-67
2023/07/06 07:56:23;;;;;;;16.55;11.82;;;17.80;99.90;;;;;;5037675;28;20044;-68
2023/07/06 07:58:48;;;;;;;;;;;17.80;99.90;;;;;;5051388;28;20049;-69
2023/07/06 08:01:20;;;;;;;16.73;11.02;;;17.80;99.90;;;;;;5054403;28;20566;-68
2023/07/06 08:03:47;;;;;;;16.48;11.65;;;17.90;99.90;;;;;;5035719;28;20463;-69
2023/07/06 08:06:16;;;;;;;17.75;10.57;;;17.90;99.90;;;;;;5036309;28;20040;-69
2023/07/06 08:08:43;;;;;;;13.48;11.13;;;18.00;99.90;;;;;;5054324;28;20037;-69
2023/07/06 08:11:20;;;;;;;14.38;10.93;;;18.20;99.90;;;;;;5053834;28;20419;-68
2023/07/06 08:13:50;;;;;;;15.70;10.07;;;18.30;99.90;;;;;;5055118;28;20055;-68
2023/07/06 08:16:16;;;;;;;16.15;10.45;;;18.50;99.90;;;;;;5033070;28;20914;-68
2023/07/06 08:18:43;;;;;;;15.05;9.82;;;18.80;99.90;;;;;;5042883;28;20489;-71
2023/07/06 08:21:10;;;;;;;15.65;10.30;;;18.90;99.90;;;;;;5050489;28;20139;-72
2023/07/06 08:23:41;;;;;;;14.05;10.30;;;19.10;99.90;;;;;;5052802;28;20044;-68
2023/07/06 08:26:10;;;;;;;17.48;10.13;;;19.20;99.90;;;;;;5032353;28;20377;-69
2023/07/06 08:28:36;;;;;;;13.52;9.32;;;19.10;99.90;;;;;;5043516;28;20609;-69
2023/07/06 08:31:03;;;;;;;17.20;9.60;;;19.10;99.90;;;;;;5056374;28;20061;-70
2023/07/06 08:33:35;;;;;;;16.38;10.70;;;19.00;99.90;;;;;;5036149;28;20302;-70
2023/07/06 08:36:06;;;;;;;14.88;10.77;;;19.10;99.90;;;;;;5036342;28;20055;-70
2023/07/06 08:38:33;;;;;;;20.33;9.52;;;19.30;99.90;;;;;;5037612;28;20055;-69
2023/07/06 08:41:03;;;;;;;13.27;9.52;;;19.40;99.90;;;;;;5035467;28;20048;-69
2023/07/06 08:43:31;;;;;;;13.07;9.18;;;19.50;99.90;;;;;;5060402;28;20049;-70
2023/07/06 08:46:03;;;;;;;16.85;9.32;;;19.60;99.90;;;;;;5057384;28;20048;-70
2023/07/06 08:48:34;;;;;;;13.80;9.07;;;19.70;99.90;;;;;;5056208;28;20548;-73
2023/07/06 08:51:34;;;;;;;12.45;8.57;;;19.80;99.90;;;;;;5059658;28;20055;-72
2023/07/06 08:54:19;;;;;;;21.67;9.00;;;19.90;99.90;;;;;;5047303;28;20037;-73
2023/07/06 08:56:48;;;;;;;15.00;8.23;;;20.10;99.90;;;;;;5024552;28;20053;-73
2023/07/06 08:59:41;;;;;;;11.52;7.80;;;20.20;99.90;;;;;;5034809;28;20427;-72
2023/07/06 09:02:17;;;;;;;12.45;7.55;;;20.30;99.90;;;;;;5044905;28;20492;-72
2023/07/06 09:04:46;;;;;;;12.18;7.82;;;20.40;99.90;;;;;;5048487;28;20048;-74
2023/07/06 09:07:15;;;;;;;12.77;8.77;;;20.40;99.90;;;;;;5042090;28;20067;-72
2023/07/06 09:09:43;;;;;;;13.98;8.70;;;20.50;99.90;;;;;;5053303;28;20623;-71
2023/07/06 09:12:16;;;;;;;15.50;7.45;;;20.50;99.90;;;;;;5055358;28;20048;-69
2023/07/06 09:14:42;;;;;;;12.80;8.00;;;20.60;99.90;;;;;;5045969;28;20054;-71
2023/07/06 09:17:16;;;;;;;11.05;7.57;;;20.70;99.90;;;;;;5033958;28;20048;-70
2023/07/06 09:19:43;;;;;;;10.95;6.82;;;20.80;99.90;;;;;;5035719;28;20105;-68
2023/07/06 09:22:10;;;;;;;12.98;6.88;;;20.90;99.90;;;;;;5037203;28;20052;-71
2023/07/06 09:24:36;;;;;;;12.25;6.30;;;20.90;99.90;;;;;;5052832;28;20068;-71
2023/07/06 09:27:08;;;;;;;9.88;6.28;;;20.90;99.90;;;;;;5050118;28;20116;-69
2023/07/06 09:29:37;;;;;;;19.83;9.52;;;20.90;99.90;;;;;;5049671;28;20051;-71
2023/07/06 09:32:19;;;;;;;10.65;7.00;;;20.90;99.90;;;;;;5054783;28;20074;-73
2023/07/06 09:34:50;;;;;;;11.23;6.10;;;20.80;99.90;;;;;;5055863;28;20044;-72
2023/07/06 09:37:19;;;;;;;9.05;5.40;;;20.80;99.90;;;;;;5034266;28;20102;-73
2023/07/06 09:40:09;;;;;;;14.88;6.60;;;20.90;99.90;;;;;;5048087;28;20123;-73
2023/07/06 09:42:34;;;;;;;10.35;5.72;;;20.90;99.90;;;;;;5057564;28;20080;-72
2023/07/06 09:45:04;;;;;;;9.57;6.28;;;20.90;99.90;;;;;;5039304;28;20182;-71
2023/07/06 09:47:33;;;;;;;9.43;5.25;;;21.00;99.90;;;;;;5042667;28;20093;-72
2023/07/06 09:50:07;;;;;;;10.80;4.93;;;21.10;99.90;;;;;;5045451;28;20102;-72
2023/07/06 09:52:37;;;;;;;10.02;5.18;;;21.20;99.90;;;;;;5050728;28;20575;-73
2023/07/06 09:55:13;;;;;;;9.10;4.82;;;21.20;99.90;;;;;;5050151;28;20044;-72
2023/07/06 09:57:40;;;;;;;15.27;5.80;;;21.20;99.90;;;;;;5021445;28;20048;-72
2023/07/06 10:00:16;;;;;;;8.90;4.87;;;21.30;99.90;;;;;;5057034;28;20056;-75
2023/07/06 10:03:03;;;;;;;8.88;4.43;;;21.30;99.90;;;;;;5048926;28;20119;-73
2023/07/06 10:05:49;;;;;;;7.18;4.60;;;21.40;99.90;;;;;;5039039;28;20408;-74
2023/07/06 10:08:21;;;;;;;8.23;4.60;;;21.20;99.90;;;;;;5039968;28;20057;-75
2023/07/06 10:10:54;;;;;;;6.90;4.50;;;21.20;99.90;;;;;;5049822;28;20131;-73
2023/07/06 10:13:35;;;;;;;10.00;4.55;;;21.10;99.90;;;;;;5035692;28;21798;-73
2023/07/06 10:16:33;;;;;;;11.38;4.55;;;20.90;99.90;;;;;;5056892;28;20052;-74
2023/07/06 10:19:22;;;;;;;9.68;5.25;;;20.80;99.90;;;;;;5036143;28;20110;-73
2023/07/06 10:22:08;;;;;;;9.70;4.90;;;20.70;99.90;;;;;;5029913;28;20103;-74
2023/07/06 10:24:41;;;;;;;9.63;4.38;;;20.60;99.90;;;;;;5055685;28;20080;-73
2023/07/06 10:27:16;;;;;;;8.65;4.80;;;20.60;99.90;;;;;;5051402;28;20044;-73
2023/07/06 10:29:47;;;;;;;9.20;4.88;;;20.70;99.90;;;;;;5054844;28;20040;-73
2023/07/06 10:32:32;;;;;;;7.47;4.55;;;20.70;99.90;;;;;;5037939;28;20097;-71
2023/07/06 10:35:19;;;;;;;10.27;4.90;;;20.80;99.90;;;;;;5057277;28;20495;-69
2023/07/06 10:37:46;;;;;;;9.32;5.20;;;20.80;99.90;;;;;;5060338;28;20119;-70
2023/07/06 10:40:28;;;;;;;8.65;4.95;;;20.80;99.90;;;;;;5044164;28;20083;-70
2023/07/06 10:43:12;;;;;;;8.15;4.80;;;20.80;99.90;;;;;;5064231;28;20084;-70
2023/07/06 10:45:57;;;;;;;8.52;5.38;;;20.80;99.90;;;;;;5059901;28;20048;-71
2023/07/06 10:48:27;;;;;;;9.25;4.28;;;21.00;99.90;;;;;;5062577;28;20045;-72
2023/07/06 10:51:15;;;;;;;7.47;4.25;;;21.20;99.90;;;;;;5055891;28;20129;-70
2023/07/06 10:53:47;;;;;;;7.70;4.53;;;21.40;99.90;;;;;;5052940;28;20049;-71
2023/07/06 10:56:22;;;;;;;11.55;4.53;;;21.50;99.90;;;;;;5029209;28;20041;-70
2023/07/06 10:58:57;;;;;;;10.05;4.78;;;21.50;99.90;;;;;;5045802;28;20052;-70
2023/07/06 11:01:38;;;;;;;8.95;4.32;;;21.40;99.90;;;;;;5062205;28;20432;-69
2023/07/06 11:04:44;;;;;;;8.20;4.50;;;21.30;99.90;;;;;;5043343;28;20052;-69
2023/07/06 11:07:13;;;;;;;9.23;4.22;;;21.00;99.90;;;;;;5062592;28;20151;-70
2023/07/06 11:09:49;;;;;;;6.15;4.00;;;20.90;99.90;;;;;;5037852;28;20099;-70
2023/07/06 11:12:18;;;;;;;9.80;4.70;;;20.80;99.90;;;;;;5045213;28;20048;-69
2023/07/06 11:14:45;;;;;;;8.98;4.28;;;20.70;99.90;;;;;;5053330;28;20032;-72
2023/07/06 11:17:30;;;;;;;8.35;4.30;;;20.70;99.90;;;;;;5062298;28;20055;-70
2023/07/06 11:20:02;;;;;;;6.68;4.18;;;20.70;99.90;;;;;;5043621;28;22361;-71
2023/07/06 11:22:28;;;;;;;9.77;4.53;;;20.60;99.90;;;;;;5062548;28;20957;-72
2023/07/06 11:25:04;;;;;;;10.95;4.30;;;20.50;99.90;;;;;;5057239;28;20047;-72
2023/07/06 11:27:37;;;;;;;8.38;4.47;;;20.40;99.90;;;;;;5042600;28;20040;-72
2023/07/06 11:30:13;;;;;;;6.85;4.15;;;20.30;99.90;;;;;;5051202;28;20052;-70
2023/07/06 11:33:16;;;;;;;7.97;4.50;;;20.30;99.90;;;;;;5056564;28;20438;-69
2023/07/06 11:35:54;;;;;;;6.38;3.65;;;20.30;99.90;;;;;;5048153;28;20070;-71
2023/07/06 11:38:38;;;;;;;7.47;3.75;;;20.30;99.90;;;;;;5035429;28;20504;-70
2023/07/06 11:41:40;;;;;;;7.75;3.67;;;20.40;99.90;;;;;;5031008;28;20049;-70
2023/07/06 11:44:15;;;;;;;7.63;3.28;;;20.50;99.90;;;;;;5045658;28;20511;-72
2023/07/06 11:46:55;;;;;;;8.20;3.53;;;20.70;99.90;;;;;;5046470;28;20075;-71
2023/07/06 11:49:40;;;;;;;6.43;3.17;;;20.80;99.90;;;;;;5029776;28;20052;-70
2023/07/06 11:52:20;;;;;;;6.67;3.33;;;20.80;99.90;;;;;;5024572;28;20500;-70
2023/07/06 11:54:54;;;;;;;6.60;3.08;;;20.80;99.90;;;;;;5036177;28;20135;-70
2023/07/06 11:57:44;;;;;;;9.23;4.00;;;20.80;99.90;;;;;;5023667;28;20068;-70
2023/07/06 12:03:08;;;;;;;8.13;3.30;;;21.10;99.90;;;;;;5053822;28;20516;-72
2023/07/06 12:05:39;;;;;;;7.93;3.50;;;21.10;99.90;;;;;;5044257;28;20124;-72
2023/07/06 12:08:25;;;;;;;8.35;4.10;;;21.20;99.90;;;;;;5048361;28;20060;-74
2023/07/06 12:10:53;;;;;;;9.93;4.75;;;21.30;99.90;;;;;;5027684;28;20056;-75
2023/07/06 12:13:25;;;;;;;7.95;3.83;;;21.40;99.90;;;;;;5035163;28;20059;-73
2023/07/06 12:16:13;;;;;;;10.13;4.53;;;21.50;99.90;;;;;;5055003;28;20090;-73
2023/07/06 12:18:41;;;;;;;9.15;3.92;;;21.60;99.90;;;;;;5039674;28;20040;-73
2023/07/06 12:21:27;;;;;;;7.85;3.95;;;21.60;99.90;;;;;;5046550;28;20049;-76
2023/07/06 12:23:52;;;;;;;7.30;3.80;;;21.70;99.90;;;;;;5028537;28;20053;-74
2023/07/06 12:26:18;;;;;;;8.13;3.83;;;21.80;99.90;;;;;;5035138;28;20694;-71
2023/07/06 12:28:49;;;;;;;8.85;4.25;;;21.90;99.90;;;;;;5037634;28;20126;-72
2023/07/06 12:31:16;;;;;;;9.52;4.32;;;21.90;99.90;;;;;;5055698;28;20059;-72
2023/07/06 12:33:42;;;;;;;10.57;4.80;;;21.80;99.90;;;;;;5040532;28;20163;-71
2023/07/06 12:36:12;;;;;;;9.88;4.45;;;21.70;99.90;;;;;;5046140;28;20055;-71
2023/07/06 12:38:39;;;;;;;9.05;4.50;;;21.70;99.90;;;;;;5026269;28;20043;-72
2023/07/06 12:41:19;;;;;;;8.60;4.45;;;21.60;99.90;;;;;;5055195;28;20059;-72
2023/07/06 12:43:45;;;;;;;7.75;4.30;;;21.50;99.90;;;;;;5031748;28;20511;-75
2023/07/06 12:46:13;;;;;;;9.50;4.30;;;21.50;99.90;;;;;;5055412;28;20099;-74
2023/07/06 12:48:46;;;;;;;5.90;4.07;;;21.50;99.90;;;;;;5053777;28;20163;-73
2023/07/06 12:51:19;;;;;;;8.18;4.20;;;21.50;99.90;;;;;;5059416;28;20048;-73
2023/07/06 12:53:47;;;;;;;8.57;4.30;;;21.50;99.90;;;;;;5047896;28;20124;-74
2023/07/06 12:56:16;;;;;;;9.40;4.30;;;21.50;99.90;;;;;;5053881;28;20075;-74
2023/07/06 12:59:05;;;;;;;6.53;3.97;;;21.50;99.90;;;;;;5047549;28;20049;-75
2023/07/06 13:01:43;;;;;;;6.93;4.40;;;21.50;99.90;;;;;;5025110;28;20053;-75